Time;durP1;ratioP1;P1;durP2;ratioP2;P2;SDS_P1;SDS_P2;PMS_P1;PMS_P2;Temp;Humidity;BMP_temperature;BMP_pressure;BME280_temperature;BME280_humidity;BME280_pressure;Samples;Min_cycle;Max_cycle;Signal;HPM_P1;HPM_P2
2021/03/04 00:05:05;;;;;;;60.07;31.33;;;;;;;4.75;61.44;98952.30;508042;1101;105499;-40
2021/03/04 00:15:13;;;;;;;59.03;30.57;;;;;;;4.72;61.59;98930.88;508000;1102;104358;-42
2021/03/04 00:25:21;;;;;;;80.47;40.93;;;;;;;4.62;61.87;98916.27;508221;1101;104625;-42
2021/03/04 00:35:27;;;;;;;82.70;38.33;;;;;;;4.46;62.31;98890.30;508143;1101;104338;-43
2021/03/04 00:45:32;;;;;;;81.90;39.33;;;;;;;4.26;62.72;98874.38;508054;1100;104348;-40
2021/03/04 00:55:44;;;;;;;61.40;32.20;;;;;;;4.20;62.93;98858.57;508012;1100;104777;-43
2021/03/04 01:05:50;;;;;;;54.53;28.10;;;;;;;4.21;63.21;98855.77;508479;1100;104374;-41
2021/03/04 01:15:55;;;;;;;92.23;40.50;;;;;;;4.12;63.85;98840.36;507934;1101;104334;-42
2021/03/04 01:26:04;;;;;;;85.50;37.95;;;;;;;4.11;63.80;98833.51;508038;1100;104671;-42
2021/03/04 01:36:08;;;;;;;78.75;37.65;;;;;;;4.14;64.20;98830.52;508018;1100;104374;-40
2021/03/04 01:46:13;;;;;;;59.30;29.77;;;;;;;4.24;64.28;98803.05;507834;1101;104817;-40
2021/03/04 01:56:26;;;;;;;60.60;30.93;;;;;;;4.36;64.45;98782.45;508000;1100;104281;-42
2021/03/04 02:06:40;;;;;;;80.20;38.90;;;;;;;4.40;64.75;98754.08;508083;1101;104326;-41
2021/03/04 02:16:48;;;;;;;80.67;38.53;;;;;;;4.39;64.78;98748.04;508332;1102;104674;-41
2021/03/04 02:27:08;;;;;;;80.53;38.55;;;;;;;4.31;64.80;98753.41;507964;1102;104309;-41
2021/03/04 02:37:12;;;;;;;;;;;;;;;4.30;65.00;98728.23;509247;1093;104335;-41
2021/03/04 02:47:17;;;;;;;65.37;34.47;;;;;;;4.24;65.43;98724.53;507888;1101;104396;-40
2021/03/04 02:57:24;;;;;;;77.97;38.57;;;;;;;4.17;65.50;98705.34;508168;1101;104670;-40
2021/03/04 03:07:29;;;;;;;67.57;32.37;;;;;;;4.04;65.54;98693.95;507971;1101;104373;-40
2021/03/04 03:17:35;;;;;;;53.10;27.37;;;;;;;4.03;65.80;98687.91;508221;1100;104306;-42
2021/03/04 03:27:39;;;;;;;67.10;33.50;;;;;;;3.97;66.22;98688.63;508127;1100;104718;-41
2021/03/04 03:37:44;;;;;;;76.53;34.47;;;;;;;3.90;66.67;98682.52;508628;1101;104635;-40
2021/03/04 03:47:50;;;;;;;65.53;30.10;;;;;;;3.88;66.51;98676.67;508177;1102;104338;-44
2021/03/04 03:58:02;;;;;;;55.27;28.77;;;;;;;3.91;66.79;98679.72;507883;1101;105385;-41
2021/03/04 04:08:06;;;;;;;71.80;34.80;;;;;;;3.86;66.73;98670.81;508129;1102;104335;-42
2021/03/04 04:18:12;;;;;;;75.87;34.90;;;;;;;3.75;66.76;98655.59;508046;1101;104312;-41
2021/03/04 04:38:45;;;;;;;67.00;33.58;;;;;;;3.79;67.10;98644.61;507912;1101;104338;-42
2021/03/04 04:48:49;;;;;;;65.90;31.57;;;;;;;3.54;66.78;98631.03;508259;1100;104619;-41
2021/03/04 04:58:54;;;;;;;63.93;29.40;;;;;;;3.54;67.25;98617.16;508016;1100;104325;-43
2021/03/04 05:08:59;;;;;;;44.30;21.30;;;;;;;3.73;67.01;98597.44;508555;1102;104706;-41
2021/03/04 05:19:04;;;;;;;47.07;23.60;;;;;;;3.96;67.14;98596.25;508241;1100;104335;-40
2021/03/04 05:29:10;;;;;;;55.07;26.87;;;;;;;4.01;67.55;98578.18;508033;1101;104698;-41
2021/03/04 05:39:15;;;;;;;59.97;29.57;;;;;;;4.03;67.63;98580.63;507828;1100;104335;-40
2021/03/04 05:49:21;;;;;;;69.90;31.35;;;;;;;4.02;67.51;98573.75;507997;1100;104338;-42
2021/03/04 05:59:36;;;;;;;88.37;35.30;;;;;;;4.19;67.67;98567.25;508165;1101;104399;-41
2021/03/04 06:09:41;;;;;;;71.40;32.13;;;;;;;4.42;67.89;98576.67;507890;1101;104287;-41
2021/03/04 06:19:51;;;;;;;74.95;35.95;;;;;;;4.74;68.18;98568.23;508034;1100;104371;-41
2021/03/04 06:29:57;;;;;;;74.27;34.93;;;;;;;4.98;68.02;98573.98;508086;1100;104666;-43
2021/03/04 06:40:03;;;;;;;71.13;33.80;;;;;;;5.11;68.17;98574.02;508145;1100;104335;-40
2021/03/04 06:50:09;;;;;;;50.55;26.45;;;;;;;5.64;68.18;98564.48;508388;1100;104265;-40
2021/03/04 07:00:20;;;;;;;65.15;31.35;;;;;;;5.79;68.37;98587.93;508098;1100;104604;-42
2021/03/04 07:10:26;;;;;;;73.93;38.93;;;;;;;5.90;68.05;98578.67;508113;1099;104258;-41
2021/03/04 07:20:32;;;;;;;125.55;49.45;;;;;;;6.01;67.39;98592.02;508134;1100;104335;-42
2021/03/04 07:30:46;;;;;;;90.20;44.57;;;;;;;6.75;67.88;98589.13;508012;1101;104306;-42
2021/03/04 07:41:02;;;;;;;80.47;38.63;;;;;;;7.15;66.59;98585.58;508156;1101;104456;-43
2021/03/04 07:51:08;;;;;;;81.67;41.00;;;;;;;7.14;66.50;98576.08;508027;1100;104736;-42
2021/03/04 08:01:12;;;;;;;81.23;40.80;;;;;;;7.71;67.07;98562.00;508050;1100;105706;-41
2021/03/04 08:11:30;;;;;;;99.33;45.60;;;;;;;8.13;66.61;98554.41;508158;1100;105787;-43
2021/03/04 08:21:39;;;;;;;97.57;53.63;;;;;;;8.41;66.28;98541.61;508085;1101;104345;-42
2021/03/04 08:31:48;;;;;;;105.37;55.10;;;;;;;8.75;65.09;98528.89;508036;1100;104680;-43
2021/03/04 08:42:01;;;;;;;95.28;54.15;;;;;;;8.74;65.01;98530.72;507875;1100;104702;-41
2021/03/04 08:52:09;;;;;;;88.17;48.67;;;;;;;8.75;65.20;98528.89;508188;1101;104306;-41
2021/03/04 09:02:16;;;;;;;103.67;49.20;;;;;;;8.97;64.82;98523.97;508127;1101;104332;-42
2021/03/04 09:12:21;;;;;;;93.97;47.97;;;;;;;8.76;64.66;98514.70;508332;1100;104347;-41
2021/03/04 09:22:27;;;;;;;95.60;50.57;;;;;;;8.73;64.76;98515.13;508298;1100;104610;-42
2021/03/04 09:42:52;;;;;;;92.77;52.00;;;;;;;9.17;64.09;98506.06;508011;1099;104328;-44
2021/03/04 09:53:00;;;;;;;82.37;46.43;;;;;;;9.62;64.06;98498.52;508106;1100;104745;-41
2021/03/04 10:03:07;;;;;;;73.37;41.10;;;;;;;9.68;61.93;98499.44;508193;1099;104309;-41
2021/03/04 10:13:12;;;;;;;70.53;39.20;;;;;;;10.02;61.41;98488.13;508181;1100;104344;-41
2021/03/04 10:23:18;;;;;;;83.90;42.63;;;;;;;10.02;58.44;98489.97;508012;1100;104677;-43
2021/03/04 10:33:23;;;;;;;76.57;40.67;;;;;;;10.18;58.99;98480.56;508124;1101;104705;-40
2021/03/04 10:43:28;;;;;;;71.90;40.45;;;;;;;10.67;57.94;98474.78;508239;1100;104697;-42
2021/03/04 10:53:31;;;;;;;66.73;38.47;;;;;;;10.54;57.42;98471.58;508409;1100;104300;-41
2021/03/04 11:03:36;;;;;;;71.77;40.70;;;;;;;10.74;57.47;98466.70;507992;1099;104341;-41
2021/03/04 11:13:41;;;;;;;62.70;35.20;;;;;;;10.78;56.07;98448.52;508028;1102;104425;-40
2021/03/04 11:23:46;;;;;;;64.73;37.30;;;;;;;11.08;57.61;98430.56;508022;1101;104822;-42
2021/03/04 11:33:50;;;;;;;65.77;35.93;;;;;;;11.22;56.78;98425.80;507942;1100;104370;-42
2021/03/04 11:43:55;;;;;;;61.27;35.70;;;;;;;10.93;55.57;98396.72;508011;1101;105512;-41
2021/03/04 11:54:00;;;;;;;64.70;37.60;;;;;;;11.04;55.20;98389.75;508070;1100;104329;-41
2021/03/04 12:04:04;;;;;;;64.07;35.70;;;;;;;11.11;55.48;98377.16;508272;1100;104405;-40
2021/03/04 12:14:09;;;;;;;58.27;36.40;;;;;;;11.26;54.41;98358.09;508159;1102;104301;-41
2021/03/04 12:24:14;;;;;;;64.17;37.30;;;;;;;11.38;54.49;98345.60;507971;1101;104348;-41
2021/03/04 12:34:22;;;;;;;66.50;35.80;;;;;;;11.18;53.29;98339.98;507898;1100;104251;-41
2021/03/04 12:44:27;;;;;;;56.33;34.03;;;;;;;11.13;54.10;98316.89;508163;1100;104352;-42
2021/03/04 12:54:33;;;;;;;69.93;40.63;;;;;;;11.17;54.15;98306.63;508037;1100;104680;-41
2021/03/04 13:04:40;;;;;;;62.03;37.97;;;;;;;11.33;54.59;98289.91;508121;1101;104348;-42
2021/03/04 13:14:45;;;;;;;66.07;40.53;;;;;;;11.06;54.02;98281.83;507818;1101;104671;-42
2021/03/04 13:24:50;;;;;;;78.63;48.47;;;;;;;10.99;55.39;98282.00;507877;1100;104389;-41
2021/03/04 13:35:20;;;;;;;90.57;51.03;;;;;;;10.98;55.22;98277.75;508467;1100;104306;-41
2021/03/04 13:45:25;;;;;;;102.17;55.07;;;;;;;11.00;55.95;98280.95;508331;1100;104597;-41
2021/03/04 13:55:44;;;;;;;91.90;43.63;;;;;;;10.97;55.51;98273.51;507929;1102;104383;-40
2021/03/04 14:05:49;;;;;;;91.77;50.73;;;;;;;10.74;56.19;98271.01;508267;1101;105428;-43
2021/03/04 14:15:54;;;;;;;95.93;48.53;;;;;;;10.44;56.64;98272.09;508191;1100;104660;-44
2021/03/04 14:26:00;;;;;;;79.90;43.83;;;;;;;10.17;57.12;98268.36;508035;1100;104447;-41
2021/03/04 14:36:05;;;;;;;127.53;46.20;;;;;;;9.91;56.91;98256.50;507975;1102;104329;-41
2021/03/04 14:46:09;;;;;;;75.70;43.57;;;;;;;9.73;57.42;98243.48;508384;1100;104746;-41
2021/03/04 14:56:14;;;;;;;96.03;44.20;;;;;;;9.50;58.37;98231.13;507791;1101;104347;-41
2021/03/04 15:06:21;;;;;;;82.20;44.30;;;;;;;9.28;58.29;98222.21;508049;1100;104371;-41
2021/03/04 15:16:26;;;;;;;75.13;41.53;;;;;;;9.14;58.62;98221.63;508013;1100;104329;-41
2021/03/04 15:26:31;;;;;;;79.37;40.87;;;;;;;9.02;59.47;98211.10;508052;1100;104386;-41
2021/03/04 15:36:40;;;;;;;99.67;54.00;;;;;;;8.71;59.48;98200.86;508095;1100;104335;-41
2021/03/04 15:46:45;;;;;;;120.22;63.13;;;;;;;8.37;60.07;98219.03;508025;1101;104722;-41
2021/03/04 15:56:50;;;;;;;106.20;53.67;;;;;;;8.17;61.21;98216.64;508086;1102;104770;-43
2021/03/04 16:07:15;;;;;;;88.67;48.87;;;;;;;8.08;62.09;98227.72;507991;1102;104571;-40
2021/03/04 16:27:41;;;;;;;120.73;61.27;;;;;;;7.43;63.65;98233.55;508189;1100;104268;-41
2021/03/04 16:37:47;;;;;;;136.67;69.60;;;;;;;7.22;63.86;98236.60;508360;1100;105962;-41
2021/03/04 16:47:54;;;;;;;107.70;55.03;;;;;;;7.16;66.13;98248.80;507838;1101;104307;-41
2021/03/04 16:58:00;;;;;;;124.67;63.30;;;;;;;6.95;65.87;98262.33;508099;1100;104332;-40
2021/03/04 17:08:08;;;;;;;130.13;65.83;;;;;;;6.67;65.96;98260.12;508038;1100;104312;-40
2021/03/04 17:18:16;;;;;;;128.10;64.10;;;;;;;6.39;66.42;98273.66;507910;1101;105390;-43
2021/03/04 17:28:23;;;;;;;104.30;51.30;;;;;;;6.26;66.86;98290.27;508293;1101;104335;-41
2021/03/04 17:38:29;;;;;;;122.17;61.97;;;;;;;6.05;67.14;98283.50;508118;1100;104335;-41
2021/03/04 17:48:35;;;;;;;126.93;61.20;;;;;;;5.89;66.56;98272.64;508727;1101;104708;-40
2021/03/04 17:58:42;;;;;;;120.83;59.67;;;;;;;5.71;67.06;98286.45;508136;1101;104402;-40
2021/03/04 18:08:48;;;;;;;81.93;44.20;;;;;;;5.77;67.12;98282.98;508249;1100;104381;-41
2021/03/04 18:18:54;;;;;;;83.53;42.60;;;;;;;5.67;67.67;98286.02;507847;1100;104329;-41
2021/03/04 18:28:59;;;;;;;82.23;43.93;;;;;;;5.49;67.75;98278.83;507986;1100;104329;-40
2021/03/04 18:39:05;;;;;;;113.30;53.83;;;;;;;5.33;68.41;98266.15;508105;1101;104261;-39
2021/03/04 18:49:10;;;;;;;113.73;56.53;;;;;;;5.00;68.35;98268.02;507938;1100;104412;-40
2021/03/04 18:59:15;;;;;;;81.57;44.13;;;;;;;4.69;69.38;98271.22;508154;1100;104711;-43
2021/03/04 19:09:23;;;;;;;76.10;42.60;;;;;;;4.43;69.80;98282.47;508079;1102;104380;-42
2021/03/04 19:19:31;;;;;;;71.00;37.63;;;;;;;4.33;70.33;98302.99;507837;1100;104309;-40
2021/03/04 19:29:36;;;;;;;101.90;49.87;;;;;;;4.13;71.56;98298.50;508008;1100;104335;-41
2021/03/04 19:39:42;;;;;;;109.10;50.37;;;;;;;3.96;71.37;98302.45;508120;1100;104341;-43
2021/03/04 19:49:47;;;;;;;77.43;38.97;;;;;;;3.80;71.49;98301.00;508108;1100;104443;-40
2021/03/04 19:59:52;;;;;;;69.67;33.47;;;;;;;3.54;72.32;98304.25;508263;1100;105047;-42
2021/03/04 20:10:11;;;;;;;;;;;;;;;3.40;72.41;98305.19;507921;1100;104682;-41
2021/03/04 20:20:15;;;;;;;96.87;43.97;;;;;;;3.27;72.61;98307.70;508174;1099;104492;-43
2021/03/04 20:30:20;;;;;;;65.77;35.27;;;;;;;3.17;72.49;98325.53;507823;1101;104622;-39
2021/03/04 20:40:29;;;;;;;59.27;30.07;;;;;;;3.22;72.29;98330.98;508181;1100;104713;-42
2021/03/04 20:50:34;;;;;;;71.57;32.70;;;;;;;2.99;72.56;98320.77;508290;1101;104724;-40
2021/03/04 21:00:39;;;;;;;73.97;30.63;;;;;;;2.83;72.76;98321.82;508055;1101;104344;-40
2021/03/04 21:10:50;;;;;;;61.80;28.37;;;;;;;2.85;72.55;98334.72;508075;1100;104660;-40
2021/03/04 21:20:54;;;;;;;51.90;25.33;;;;;;;2.89;72.28;98341.17;507824;1101;104385;-40
2021/03/04 21:31:00;;;;;;;76.60;33.87;;;;;;;2.78;72.56;98339.86;507970;1102;104325;-40
2021/03/04 21:41:12;;;;;;;70.73;28.00;;;;;;;2.67;72.81;98342.98;507976;1100;104693;-40
2021/03/04 21:51:17;;;;;;;61.63;26.83;;;;;;;2.56;72.89;98325.99;507795;1101;104628;-41
2021/03/04 22:01:22;;;;;;;66.67;28.40;;;;;;;2.52;73.19;98350.84;507826;1101;104390;-40
2021/03/04 22:11:36;;;;;;;100.30;45.00;;;;;;;2.37;73.16;98357.93;508101;1100;104386;-40
2021/03/04 22:21:41;;;;;;;94.30;38.50;;;;;;;2.25;73.49;98357.58;507947;1100;104350;-41
2021/03/04 22:31:46;;;;;;;75.17;32.03;;;;;;;2.19;74.49;98352.30;507916;1100;104492;-41
2021/03/04 22:41:58;;;;;;;69.90;30.17;;;;;;;2.10;75.32;98352.38;507961;1100;104309;-41
2021/03/04 22:52:04;;;;;;;73.30;32.40;;;;;;;2.16;76.11;98363.91;507968;1100;105566;-41
2021/03/04 23:02:09;;;;;;;62.90;29.77;;;;;;;2.11;76.13;98356.60;507962;1102;104422;-42
2021/03/04 23:12:22;;;;;;;60.10;28.37;;;;;;;1.89;77.93;98357.52;507786;1100;104328;-42
2021/03/04 23:22:29;;;;;;;46.33;19.60;;;;;;;1.60;77.47;98360.94;508057;1100;104280;-40
2021/03/04 23:32:34;;;;;;;41.40;19.93;;;;;;;1.55;77.38;98363.28;507749;1101;104290;-40
2021/03/04 23:42:43;;;;;;;49.67;20.47;;;;;;;1.57;77.23;98350.88;507618;1102;104322;-40
2021/03/04 23:52:49;;;;;;;38.77;19.10;;;;;;;1.68;76.59;98360.88;508032;1100;104379;-40
